sensor_id;sensor_type;location;lat;lon;timestamp;P1;durP1;ratioP1;P2;durP2;ratioP2
25948;SDS011;13961;51.178;4.448;2023-06-14T00:00:19;9.98;;;7.57;;
25948;SDS011;13961;51.178;4.448;2023-06-14T00:02:45;7.55;;;6.72;;
25948;SDS011;13961;51.178;4.448;2023-06-14T00:05:10;9.82;;;7.13;;
25948;SDS011;13961;51.178;4.448;2023-06-14T00:07:38;9.77;;;7.68;;
25948;SDS011;13961;51.178;4.448;2023-06-14T00:10:08;9.10;;;7.43;;
25948;SDS011;13961;51.178;4.448;2023-06-14T00:12:34;11.45;;;7.40;;
25948;SDS011;13961;51.178;4.448;2023-06-14T00:15:01;9.43;;;7.55;;
25948;SDS011;13961;51.178;4.448;2023-06-14T00:17:27;11.27;;;7.88;;
25948;SDS011;13961;51.178;4.448;2023-06-14T00:19:56;11.60;;;7.68;;
25948;SDS011;13961;51.178;4.448;2023-06-14T00:22:23;10.57;;;8.00;;
25948;SDS011;13961;51.178;4.448;2023-06-14T00:24:53;11.35;;;6.50;;
25948;SDS011;13961;51.178;4.448;2023-06-14T00:27:19;9.18;;;7.45;;
25948;SDS011;13961;51.178;4.448;2023-06-14T00:29:45;11.85;;;7.43;;
25948;SDS011;13961;51.178;4.448;2023-06-14T00:32:10;13.85;;;8.00;;
25948;SDS011;13961;51.178;4.448;2023-06-14T00:34:36;10.02;;;8.23;;
25948;SDS011;13961;51.178;4.448;2023-06-14T00:37:02;11.57;;;7.60;;
25948;SDS011;13961;51.178;4.448;2023-06-14T00:39:28;9.65;;;7.50;;
25948;SDS011;13961;51.178;4.448;2023-06-14T00:41:53;9.27;;;7.57;;
25948;SDS011;13961;51.178;4.448;2023-06-14T00:44:19;9.85;;;7.68;;
25948;SDS011;13961;51.178;4.448;2023-06-14T00:46:45;10.73;;;8.00;;
25948;SDS011;13961;51.178;4.448;2023-06-14T00:49:11;9.63;;;7.95;;
25948;SDS011;13961;51.178;4.448;2023-06-14T00:51:40;11.48;;;7.65;;
25948;SDS011;13961;51.178;4.448;2023-06-14T00:54:10;13.32;;;6.85;;
25948;SDS011;13961;51.178;4.448;2023-06-14T00:56:36;12.20;;;7.68;;
25948;SDS011;13961;51.178;4.448;2023-06-14T00:59:02;10.52;;;8.15;;
25948;SDS011;13961;51.178;4.448;2023-06-14T01:01:29;15.85;;;8.02;;
25948;SDS011;13961;51.178;4.448;2023-06-14T01:03:58;11.95;;;7.47;;
25948;SDS011;13961;51.178;4.448;2023-06-14T01:09:52;10.38;;;7.38;;
25948;SDS011;13961;51.178;4.448;2023-06-14T01:12:15;12.82;;;7.47;;
25948;SDS011;13961;51.178;4.448;2023-06-14T01:14:49;11.43;;;6.97;;
25948;SDS011;13961;51.178;4.448;2023-06-14T01:17:18;11.90;;;7.07;;
25948;SDS011;13961;51.178;4.448;2023-06-14T01:19:44;13.15;;;7.50;;
25948;SDS011;13961;51.178;4.448;2023-06-14T01:22:11;12.50;;;7.70;;
25948;SDS011;13961;51.178;4.448;2023-06-14T01:24:36;10.25;;;7.43;;
25948;SDS011;13961;51.178;4.448;2023-06-14T01:27:04;10.70;;;7.43;;
25948;SDS011;13961;51.178;4.448;2023-06-14T01:29:32;10.05;;;7.03;;
25948;SDS011;13961;51.178;4.448;2023-06-14T01:32:02;14.32;;;7.47;;
25948;SDS011;13961;51.178;4.448;2023-06-14T01:34:28;10.45;;;7.28;;
25948;SDS011;13961;51.178;4.448;2023-06-14T01:36:54;8.35;;;6.70;;
25948;SDS011;13961;51.178;4.448;2023-06-14T01:39:21;10.30;;;6.72;;
25948;SDS011;13961;51.178;4.448;2023-06-14T01:41:48;9.05;;;7.35;;
25948;SDS011;13961;51.178;4.448;2023-06-14T01:44:16;8.20;;;6.18;;
25948;SDS011;13961;51.178;4.448;2023-06-14T01:46:43;12.05;;;7.43;;
25948;SDS011;13961;51.178;4.448;2023-06-14T01:49:10;12.88;;;6.88;;
25948;SDS011;13961;51.178;4.448;2023-06-14T01:51:36;10.77;;;6.97;;
25948;SDS011;13961;51.178;4.448;2023-06-14T01:54:02;10.77;;;6.60;;
25948;SDS011;13961;51.178;4.448;2023-06-14T01:56:28;11.95;;;6.32;;
25948;SDS011;13961;51.178;4.448;2023-06-14T01:58:53;9.15;;;6.47;;
25948;SDS011;13961;51.178;4.448;2023-06-14T02:01:19;12.98;;;6.18;;
25948;SDS011;13961;51.178;4.448;2023-06-14T02:03:46;8.07;;;6.20;;
25948;SDS011;13961;51.178;4.448;2023-06-14T02:06:13;9.35;;;6.28;;
25948;SDS011;13961;51.178;4.448;2023-06-14T02:08:41;8.90;;;6.30;;
25948;SDS011;13961;51.178;4.448;2023-06-14T02:11:07;13.75;;;6.50;;
25948;SDS011;13961;51.178;4.448;2023-06-14T02:13:33;9.55;;;6.10;;
25948;SDS011;13961;51.178;4.448;2023-06-14T02:16:00;8.75;;;5.80;;
25948;SDS011;13961;51.178;4.448;2023-06-14T02:18:26;9.55;;;6.03;;
25948;SDS011;13961;51.178;4.448;2023-06-14T02:20:52;8.13;;;5.55;;
25948;SDS011;13961;51.178;4.448;2023-06-14T02:23:18;9.13;;;5.97;;
25948;SDS011;13961;51.178;4.448;2023-06-14T02:25:43;8.02;;;5.93;;
25948;SDS011;13961;51.178;4.448;2023-06-14T02:28:11;9.27;;;6.25;;
25948;SDS011;13961;51.178;4.448;2023-06-14T02:30:37;8.80;;;6.10;;
25948;SDS011;13961;51.178;4.448;2023-06-14T02:33:02;7.68;;;5.38;;
25948;SDS011;13961;51.178;4.448;2023-06-14T02:35:30;7.95;;;6.00;;
25948;SDS011;13961;51.178;4.448;2023-06-14T02:37:55;12.27;;;5.93;;
25948;SDS011;13961;51.178;4.448;2023-06-14T02:40:21;8.50;;;5.65;;
25948;SDS011;13961;51.178;4.448;2023-06-14T02:42:47;9.98;;;5.78;;
25948;SDS011;13961;51.178;4.448;2023-06-14T02:45:13;9.63;;;5.75;;
25948;SDS011;13961;51.178;4.448;2023-06-14T02:47:40;8.65;;;6.13;;
25948;SDS011;13961;51.178;4.448;2023-06-14T02:50:05;11.77;;;5.97;;
25948;SDS011;13961;51.178;4.448;2023-06-14T02:52:32;9.23;;;5.70;;
25948;SDS011;13961;51.178;4.448;2023-06-14T02:54:58;10.52;;;6.13;;
25948;SDS011;13961;51.178;4.448;2023-06-14T02:57:24;9.13;;;5.65;;
25948;SDS011;13961;51.178;4.448;2023-06-14T02:59:50;8.35;;;5.47;;
25948;SDS011;13961;51.178;4.448;2023-06-14T03:02:16;10.75;;;5.93;;
25948;SDS011;13961;51.178;4.448;2023-06-14T03:04:43;7.28;;;4.65;;
25948;SDS011;13961;51.178;4.448;2023-06-14T03:07:09;7.47;;;5.50;;
25948;SDS011;13961;51.178;4.448;2023-06-14T03:09:36;7.05;;;5.30;;
25948;SDS011;13961;51.178;4.448;2023-06-14T03:12:05;8.32;;;5.47;;
25948;SDS011;13961;51.178;4.448;2023-06-14T03:14:35;8.13;;;5.53;;
25948;SDS011;13961;51.178;4.448;2023-06-14T03:17:01;9.23;;;5.40;;
25948;SDS011;13961;51.178;4.448;2023-06-14T03:19:27;9.05;;;6.00;;
25948;SDS011;13961;51.178;4.448;2023-06-14T03:21:53;10.60;;;5.40;;
25948;SDS011;13961;51.178;4.448;2023-06-14T03:24:22;9.32;;;5.82;;
25948;SDS011;13961;51.178;4.448;2023-06-14T03:26:48;11.55;;;5.88;;
25948;SDS011;13961;51.178;4.448;2023-06-14T03:29:14;10.45;;;5.80;;
25948;SDS011;13961;51.178;4.448;2023-06-14T03:31:55;8.68;;;5.63;;
25948;SDS011;13961;51.178;4.448;2023-06-14T03:34:24;8.35;;;5.45;;
25948;SDS011;13961;51.178;4.448;2023-06-14T03:36:50;9.07;;;5.22;;
25948;SDS011;13961;51.178;4.448;2023-06-14T03:39:16;11.25;;;5.68;;
25948;SDS011;13961;51.178;4.448;2023-06-14T03:41:41;6.47;;;4.60;;
25948;SDS011;13961;51.178;4.448;2023-06-14T03:44:07;11.95;;;5.55;;
25948;SDS011;13961;51.178;4.448;2023-06-14T03:46:33;9.85;;;5.13;;
25948;SDS011;13961;51.178;4.448;2023-06-14T03:48:58;13.20;;;5.32;;
25948;SDS011;13961;51.178;4.448;2023-06-14T03:51:25;9.20;;;5.00;;
25948;SDS011;13961;51.178;4.448;2023-06-14T03:53:51;8.52;;;5.85;;
25948;SDS011;13961;51.178;4.448;2023-06-14T03:56:16;8.30;;;5.50;;
25948;SDS011;13961;51.178;4.448;2023-06-14T03:58:42;8.75;;;5.20;;
25948;SDS011;13961;51.178;4.448;2023-06-14T04:01:08;7.78;;;4.95;;
25948;SDS011;13961;51.178;4.448;2023-06-14T04:03:33;8.75;;;5.45;;
25948;SDS011;13961;51.178;4.448;2023-06-14T04:05:59;8.75;;;5.28;;
25948;SDS011;13961;51.178;4.448;2023-06-14T04:08:25;9.27;;;5.20;;
25948;SDS011;13961;51.178;4.448;2023-06-14T04:10:51;8.63;;;4.85;;
25948;SDS011;13961;51.178;4.448;2023-06-14T04:13:16;9.20;;;5.50;;
25948;SDS011;13961;51.178;4.448;2023-06-14T04:15:42;9.30;;;5.03;;
25948;SDS011;13961;51.178;4.448;2023-06-14T04:18:12;8.20;;;4.97;;
25948;SDS011;13961;51.178;4.448;2023-06-14T04:20:38;10.48;;;5.32;;
25948;SDS011;13961;51.178;4.448;2023-06-14T04:23:11;8.63;;;5.35;;
25948;SDS011;13961;51.178;4.448;2023-06-14T04:25:38;9.73;;;5.75;;
25948;SDS011;13961;51.178;4.448;2023-06-14T04:28:05;7.43;;;5.20;;
25948;SDS011;13961;51.178;4.448;2023-06-14T04:30:33;9.80;;;5.78;;
25948;SDS011;13961;51.178;4.448;2023-06-14T04:33:00;8.73;;;5.50;;
25948;SDS011;13961;51.178;4.448;2023-06-14T04:35:25;7.60;;;5.03;;
25948;SDS011;13961;51.178;4.448;2023-06-14T04:37:54;9.80;;;5.47;;
25948;SDS011;13961;51.178;4.448;2023-06-14T04:40:20;12.50;;;6.10;;
25948;SDS011;13961;51.178;4.448;2023-06-14T04:42:45;9.82;;;5.85;;
25948;SDS011;13961;51.178;4.448;2023-06-14T04:45:12;12.15;;;5.72;;
25948;SDS011;13961;51.178;4.448;2023-06-14T04:47:38;11.18;;;5.30;;
25948;SDS011;13961;51.178;4.448;2023-06-14T04:50:04;11.23;;;6.05;;
25948;SDS011;13961;51.178;4.448;2023-06-14T04:52:29;7.85;;;5.53;;
25948;SDS011;13961;51.178;4.448;2023-06-14T04:54:56;8.82;;;5.82;;
25948;SDS011;13961;51.178;4.448;2023-06-14T05:00:13;9.60;;;5.60;;
25948;SDS011;13961;51.178;4.448;2023-06-14T05:02:39;11.02;;;6.22;;
25948;SDS011;13961;51.178;4.448;2023-06-14T05:05:05;7.82;;;5.80;;
25948;SDS011;13961;51.178;4.448;2023-06-14T05:07:33;11.85;;;5.90;;
25948;SDS011;13961;51.178;4.448;2023-06-14T05:10:01;12.80;;;5.13;;
25948;SDS011;13961;51.178;4.448;2023-06-14T05:12:26;9.52;;;5.88;;
25948;SDS011;13961;51.178;4.448;2023-06-14T05:14:57;10.38;;;5.70;;
25948;SDS011;13961;51.178;4.448;2023-06-14T05:17:23;10.23;;;6.20;;
25948;SDS011;13961;51.178;4.448;2023-06-14T05:19:49;9.77;;;6.20;;
25948;SDS011;13961;51.178;4.448;2023-06-14T05:22:15;11.40;;;6.30;;
25948;SDS011;13961;51.178;4.448;2023-06-14T05:24:41;9.10;;;5.93;;
25948;SDS011;13961;51.178;4.448;2023-06-14T05:27:07;11.27;;;6.53;;
25948;SDS011;13961;51.178;4.448;2023-06-14T05:29:33;11.70;;;6.30;;
25948;SDS011;13961;51.178;4.448;2023-06-14T05:31:58;12.85;;;6.28;;
25948;SDS011;13961;51.178;4.448;2023-06-14T05:34:25;11.35;;;6.20;;
25948;SDS011;13961;51.178;4.448;2023-06-14T05:36:50;10.18;;;5.57;;
25948;SDS011;13961;51.178;4.448;2023-06-14T05:39:16;10.30;;;6.53;;
25948;SDS011;13961;51.178;4.448;2023-06-14T05:41:42;12.60;;;6.80;;
25948;SDS011;13961;51.178;4.448;2023-06-14T05:44:08;13.88;;;6.70;;
25948;SDS011;13961;51.178;4.448;2023-06-14T05:46:34;17.15;;;6.88;;
25948;SDS011;13961;51.178;4.448;2023-06-14T05:49:00;13.77;;;7.45;;
25948;SDS011;13961;51.178;4.448;2023-06-14T05:51:25;9.77;;;6.22;;
25948;SDS011;13961;51.178;4.448;2023-06-14T05:53:51;13.85;;;7.35;;
25948;SDS011;13961;51.178;4.448;2023-06-14T05:56:17;12.20;;;6.82;;
25948;SDS011;13961;51.178;4.448;2023-06-14T05:58:44;11.93;;;6.55;;
25948;SDS011;13961;51.178;4.448;2023-06-14T06:01:10;14.98;;;6.65;;
25948;SDS011;13961;51.178;4.448;2023-06-14T06:03:36;11.23;;;6.43;;
25948;SDS011;13961;51.178;4.448;2023-06-14T06:06:02;11.25;;;6.85;;
25948;SDS011;13961;51.178;4.448;2023-06-14T06:08:28;11.85;;;6.97;;
25948;SDS011;13961;51.178;4.448;2023-06-14T06:10:54;12.77;;;6.60;;
25948;SDS011;13961;51.178;4.448;2023-06-14T06:13:20;11.65;;;6.88;;
25948;SDS011;13961;51.178;4.448;2023-06-14T06:15:46;12.55;;;7.05;;
25948;SDS011;13961;51.178;4.448;2023-06-14T06:18:12;13.50;;;7.20;;
25948;SDS011;13961;51.178;4.448;2023-06-14T06:20:38;14.07;;;7.15;;
25948;SDS011;13961;51.178;4.448;2023-06-14T06:23:06;12.10;;;7.35;;
25948;SDS011;13961;51.178;4.448;2023-06-14T06:25:32;15.88;;;7.53;;
25948;SDS011;13961;51.178;4.448;2023-06-14T06:27:58;10.27;;;6.95;;
25948;SDS011;13961;51.178;4.448;2023-06-14T06:30:24;12.73;;;7.28;;
25948;SDS011;13961;51.178;4.448;2023-06-14T06:32:50;11.30;;;7.20;;
25948;SDS011;13961;51.178;4.448;2023-06-14T06:35:17;12.73;;;7.43;;
25948;SDS011;13961;51.178;4.448;2023-06-14T06:37:42;10.77;;;7.65;;
25948;SDS011;13961;51.178;4.448;2023-06-14T06:40:08;9.43;;;7.30;;
25948;SDS011;13961;51.178;4.448;2023-06-14T06:42:35;12.32;;;7.13;;
25948;SDS011;13961;51.178;4.448;2023-06-14T06:45:01;11.80;;;8.13;;
25948;SDS011;13961;51.178;4.448;2023-06-14T06:47:27;13.60;;;7.85;;
25948;SDS011;13961;51.178;4.448;2023-06-14T06:49:53;11.38;;;7.43;;
25948;SDS011;13961;51.178;4.448;2023-06-14T06:52:19;8.27;;;6.97;;
25948;SDS011;13961;51.178;4.448;2023-06-14T06:54:45;9.55;;;7.90;;
25948;SDS011;13961;51.178;4.448;2023-06-14T06:57:10;13.38;;;7.43;;
25948;SDS011;13961;51.178;4.448;2023-06-14T06:59:36;11.27;;;7.90;;
25948;SDS011;13961;51.178;4.448;2023-06-14T07:02:02;9.60;;;8.07;;
25948;SDS011;13961;51.178;4.448;2023-06-14T07:04:28;12.50;;;7.28;;
25948;SDS011;13961;51.178;4.448;2023-06-14T07:06:54;10.63;;;7.50;;
25948;SDS011;13961;51.178;4.448;2023-06-14T07:09:20;17.20;;;8.00;;
25948;SDS011;13961;51.178;4.448;2023-06-14T07:11:46;13.60;;;7.78;;
25948;SDS011;13961;51.178;4.448;2023-06-14T07:14:12;10.50;;;7.30;;
25948;SDS011;13961;51.178;4.448;2023-06-14T07:16:38;11.77;;;8.50;;
25948;SDS011;13961;51.178;4.448;2023-06-14T07:19:04;9.70;;;7.55;;
25948;SDS011;13961;51.178;4.448;2023-06-14T07:21:30;14.30;;;8.50;;
25948;SDS011;13961;51.178;4.448;2023-06-14T07:23:56;11.77;;;7.47;;
25948;SDS011;13961;51.178;4.448;2023-06-14T07:26:21;10.02;;;7.20;;
25948;SDS011;13961;51.178;4.448;2023-06-14T07:28:48;11.80;;;7.65;;
25948;SDS011;13961;51.178;4.448;2023-06-14T07:31:14;13.25;;;7.55;;
25948;SDS011;13961;51.178;4.448;2023-06-14T07:33:44;10.50;;;8.10;;
25948;SDS011;13961;51.178;4.448;2023-06-14T07:36:10;14.05;;;8.45;;
25948;SDS011;13961;51.178;4.448;2023-06-14T07:38:36;10.13;;;7.22;;
25948;SDS011;13961;51.178;4.448;2023-06-14T07:41:02;15.98;;;8.00;;
25948;SDS011;13961;51.178;4.448;2023-06-14T07:43:28;11.43;;;8.15;;
25948;SDS011;13961;51.178;4.448;2023-06-14T07:45:53;11.90;;;8.05;;
25948;SDS011;13961;51.178;4.448;2023-06-14T07:48:20;14.30;;;7.90;;
25948;SDS011;13961;51.178;4.448;2023-06-14T07:50:45;13.70;;;8.05;;
25948;SDS011;13961;51.178;4.448;2023-06-14T07:53:11;13.60;;;8.73;;
25948;SDS011;13961;51.178;4.448;2023-06-14T07:55:37;18.85;;;8.27;;
25948;SDS011;13961;51.178;4.448;2023-06-14T07:58:05;10.57;;;7.85;;
25948;SDS011;13961;51.178;4.448;2023-06-14T08:00:33;14.45;;;8.13;;
25948;SDS011;13961;51.178;4.448;2023-06-14T08:02:59;16.52;;;7.63;;
25948;SDS011;13961;51.178;4.448;2023-06-14T08:05:25;14.32;;;8.02;;
25948;SDS011;13961;51.178;4.448;2023-06-14T08:07:52;14.43;;;7.97;;
25948;SDS011;13961;51.178;4.448;2023-06-14T08:10:18;11.73;;;8.63;;
25948;SDS011;13961;51.178;4.448;2023-06-14T08:12:43;11.85;;;8.43;;
25948;SDS011;13961;51.178;4.448;2023-06-14T08:15:09;11.48;;;8.48;;
25948;SDS011;13961;51.178;4.448;2023-06-14T08:17:35;12.68;;;8.75;;
25948;SDS011;13961;51.178;4.448;2023-06-14T08:20:01;9.15;;;7.40;;
25948;SDS011;13961;51.178;4.448;2023-06-14T08:22:29;11.48;;;8.27;;
25948;SDS011;13961;51.178;4.448;2023-06-14T08:24:57;11.52;;;8.30;;
25948;SDS011;13961;51.178;4.448;2023-06-14T08:27:23;12.73;;;8.20;;
25948;SDS011;13961;51.178;4.448;2023-06-14T08:29:49;13.73;;;8.25;;
25948;SDS011;13961;51.178;4.448;2023-06-14T08:32:15;18.02;;;8.32;;
25948;SDS011;13961;51.178;4.448;2023-06-14T08:34:40;12.32;;;8.40;;
25948;SDS011;13961;51.178;4.448;2023-06-14T08:37:06;14.68;;;8.13;;
25948;SDS011;13961;51.178;4.448;2023-06-14T08:39:32;10.20;;;8.15;;
25948;SDS011;13961;51.178;4.448;2023-06-14T08:41:58;15.23;;;9.77;;
25948;SDS011;13961;51.178;4.448;2023-06-14T08:44:27;11.35;;;7.63;;
25948;SDS011;13961;51.178;4.448;2023-06-14T08:46:54;11.40;;;8.63;;
25948;SDS011;13961;51.178;4.448;2023-06-14T08:49:22;12.15;;;8.20;;
25948;SDS011;13961;51.178;4.448;2023-06-14T08:51:50;11.73;;;8.07;;
25948;SDS011;13961;51.178;4.448;2023-06-14T08:54:23;10.35;;;8.65;;
25948;SDS011;13961;51.178;4.448;2023-06-14T08:56:52;9.95;;;7.50;;
25948;SDS011;13961;51.178;4.448;2023-06-14T08:59:23;17.75;;;8.05;;
25948;SDS011;13961;51.178;4.448;2023-06-14T09:01:52;9.80;;;7.53;;
25948;SDS011;13961;51.178;4.448;2023-06-14T09:04:22;12.23;;;8.18;;
25948;SDS011;13961;51.178;4.448;2023-06-14T09:06:49;12.38;;;7.82;;
25948;SDS011;13961;51.178;4.448;2023-06-14T09:09:19;11.57;;;7.82;;
25948;SDS011;13961;51.178;4.448;2023-06-14T09:11:46;9.10;;;8.10;;
25948;SDS011;13961;51.178;4.448;2023-06-14T09:14:11;10.75;;;7.97;;
25948;SDS011;13961;51.178;4.448;2023-06-14T09:16:37;14.30;;;7.57;;
25948;SDS011;13961;51.178;4.448;2023-06-14T09:19:02;10.80;;;8.05;;
25948;SDS011;13961;51.178;4.448;2023-06-14T09:21:28;11.75;;;8.40;;
25948;SDS011;13961;51.178;4.448;2023-06-14T09:23:59;13.55;;;7.68;;
25948;SDS011;13961;51.178;4.448;2023-06-14T09:26:25;12.43;;;7.85;;
25948;SDS011;13961;51.178;4.448;2023-06-14T09:28:52;15.15;;;8.35;;
25948;SDS011;13961;51.178;4.448;2023-06-14T09:31:18;12.93;;;7.47;;
25948;SDS011;13961;51.178;4.448;2023-06-14T09:33:45;10.73;;;8.02;;
25948;SDS011;13961;51.178;4.448;2023-06-14T09:36:22;12.40;;;7.32;;
25948;SDS011;13961;51.178;4.448;2023-06-14T09:41:34;10.95;;;7.30;;
25948;SDS011;13961;51.178;4.448;2023-06-14T09:44:05;9.30;;;6.53;;
25948;SDS011;13961;51.178;4.448;2023-06-14T09:46:32;11.30;;;7.13;;
25948;SDS011;13961;51.178;4.448;2023-06-14T09:48:58;6.93;;;5.85;;
25948;SDS011;13961;51.178;4.448;2023-06-14T09:51:24;11.38;;;7.03;;
25948;SDS011;13961;51.178;4.448;2023-06-14T09:53:51;10.52;;;7.05;;
25948;SDS011;13961;51.178;4.448;2023-06-14T09:56:27;11.68;;;6.50;;
25948;SDS011;13961;51.178;4.448;2023-06-14T09:58:55;10.73;;;6.50;;
25948;SDS011;13961;51.178;4.448;2023-06-14T10:01:25;7.65;;;6.00;;
25948;SDS011;13961;51.178;4.448;2023-06-14T10:06:24;12.73;;;5.80;;
25948;SDS011;13961;51.178;4.448;2023-06-14T10:08:55;11.57;;;5.43;;
25948;SDS011;13961;51.178;4.448;2023-06-14T10:11:25;6.93;;;5.43;;
25948;SDS011;13961;51.178;4.448;2023-06-14T10:13:51;13.15;;;6.25;;
25948;SDS011;13961;51.178;4.448;2023-06-14T10:19:15;7.82;;;5.18;;
25948;SDS011;13961;51.178;4.448;2023-06-14T10:24:37;10.88;;;5.13;;
25948;SDS011;13961;51.178;4.448;2023-06-14T10:27:08;7.78;;;5.60;;
25948;SDS011;13961;51.178;4.448;2023-06-14T10:32:18;9.80;;;5.45;;
25948;SDS011;13961;51.178;4.448;2023-06-14T10:34:44;9.27;;;5.35;;
25948;SDS011;13961;51.178;4.448;2023-06-14T10:37:13;8.88;;;5.10;;
25948;SDS011;13961;51.178;4.448;2023-06-14T10:39:40;7.38;;;5.15;;
25948;SDS011;13961;51.178;4.448;2023-06-14T10:42:11;7.40;;;5.43;;
25948;SDS011;13961;51.178;4.448;2023-06-14T10:47:07;7.88;;;5.03;;
25948;SDS011;13961;51.178;4.448;2023-06-14T10:52:28;6.82;;;4.90;;
25948;SDS011;13961;51.178;4.448;2023-06-14T10:55:05;9.43;;;5.05;;
25948;SDS011;13961;51.178;4.448;2023-06-14T10:57:43;9.48;;;5.82;;
25948;SDS011;13961;51.178;4.448;2023-06-14T11:00:23;9.57;;;5.32;;
25948;SDS011;13961;51.178;4.448;2023-06-14T11:05:49;8.00;;;4.93;;
25948;SDS011;13961;51.178;4.448;2023-06-14T11:11:06;6.75;;;5.15;;
25948;SDS011;13961;51.178;4.448;2023-06-14T11:13:33;8.57;;;5.13;;
25948;SDS011;13961;51.178;4.448;2023-06-14T11:15:59;8.43;;;4.90;;
25948;SDS011;13961;51.178;4.448;2023-06-14T11:18:25;7.50;;;5.32;;
25948;SDS011;13961;51.178;4.448;2023-06-14T11:20:52;8.80;;;4.78;;
25948;SDS011;13961;51.178;4.448;2023-06-14T11:23:18;11.52;;;4.90;;
25948;SDS011;13961;51.178;4.448;2023-06-14T11:25:52;9.30;;;5.00;;
25948;SDS011;13961;51.178;4.448;2023-06-14T11:28:18;6.07;;;4.30;;
25948;SDS011;13961;51.178;4.448;2023-06-14T11:30:46;9.30;;;4.88;;
25948;SDS011;13961;51.178;4.448;2023-06-14T11:33:28;11.23;;;4.80;;
25948;SDS011;13961;51.178;4.448;2023-06-14T11:35:54;10.13;;;4.80;;
25948;SDS011;13961;51.178;4.448;2023-06-14T11:38:19;7.65;;;4.57;;
25948;SDS011;13961;51.178;4.448;2023-06-14T11:40:45;7.30;;;5.30;;
25948;SDS011;13961;51.178;4.448;2023-06-14T11:43:11;10.32;;;5.07;;
25948;SDS011;13961;51.178;4.448;2023-06-14T11:45:38;5.93;;;4.57;;
25948;SDS011;13961;51.178;4.448;2023-06-14T11:48:04;8.00;;;4.82;;
25948;SDS011;13961;51.178;4.448;2023-06-14T11:50:31;7.28;;;4.72;;
25948;SDS011;13961;51.178;4.448;2023-06-14T11:52:59;9.35;;;5.30;;
25948;SDS011;13961;51.178;4.448;2023-06-14T11:55:31;8.52;;;4.80;;
25948;SDS011;13961;51.178;4.448;2023-06-14T11:57:57;8.35;;;4.95;;
25948;SDS011;13961;51.178;4.448;2023-06-14T12:00:26;7.63;;;4.80;;
25948;SDS011;13961;51.178;4.448;2023-06-14T12:02:53;7.03;;;4.53;;
25948;SDS011;13961;51.178;4.448;2023-06-14T12:05:21;8.13;;;4.85;;
25948;SDS011;13961;51.178;4.448;2023-06-14T12:07:47;5.55;;;4.20;;
25948;SDS011;13961;51.178;4.448;2023-06-14T12:10:13;6.78;;;4.60;;
25948;SDS011;13961;51.178;4.448;2023-06-14T12:12:40;8.70;;;4.95;;
25948;SDS011;13961;51.178;4.448;2023-06-14T12:15:07;7.68;;;4.18;;
25948;SDS011;13961;51.178;4.448;2023-06-14T12:17:35;4.38;;;3.97;;
25948;SDS011;13961;51.178;4.448;2023-06-14T12:20:07;7.50;;;4.03;;
25948;SDS011;13961;51.178;4.448;2023-06-14T12:22:36;7.53;;;4.22;;
25948;SDS011;13961;51.178;4.448;2023-06-14T12:25:04;5.15;;;3.90;;
25948;SDS011;13961;51.178;4.448;2023-06-14T12:27:30;7.80;;;3.90;;
25948;SDS011;13961;51.178;4.448;2023-06-14T12:30:00;7.93;;;4.28;;
25948;SDS011;13961;51.178;4.448;2023-06-14T12:32:30;7.43;;;4.10;;
25948;SDS011;13961;51.178;4.448;2023-06-14T12:34:55;8.68;;;4.28;;
25948;SDS011;13961;51.178;4.448;2023-06-14T12:37:21;7.25;;;4.20;;
25948;SDS011;13961;51.178;4.448;2023-06-14T12:39:47;4.65;;;3.83;;
25948;SDS011;13961;51.178;4.448;2023-06-14T12:42:13;7.85;;;3.85;;
25948;SDS011;13961;51.178;4.448;2023-06-14T12:44:40;8.27;;;4.20;;
25948;SDS011;13961;51.178;4.448;2023-06-14T12:47:06;6.53;;;3.72;;
25948;SDS011;13961;51.178;4.448;2023-06-14T12:49:32;4.55;;;3.50;;
25948;SDS011;13961;51.178;4.448;2023-06-14T12:51:58;3.72;;;3.40;;
25948;SDS011;13961;51.178;4.448;2023-06-14T12:54:24;5.53;;;3.70;;
25948;SDS011;13961;51.178;4.448;2023-06-14T12:56:52;4.75;;;3.85;;
25948;SDS011;13961;51.178;4.448;2023-06-14T12:59:20;5.85;;;3.13;;
25948;SDS011;13961;51.178;4.448;2023-06-14T13:01:45;5.10;;;2.95;;
25948;SDS011;13961;51.178;4.448;2023-06-14T13:04:14;8.48;;;2.88;;
25948;SDS011;13961;51.178;4.448;2023-06-14T13:06:40;3.95;;;2.83;;
25948;SDS011;13961;51.178;4.448;2023-06-14T13:09:06;7.30;;;2.80;;
25948;SDS011;13961;51.178;4.448;2023-06-14T13:11:33;3.30;;;2.70;;
25948;SDS011;13961;51.178;4.448;2023-06-14T13:13:58;7.68;;;3.08;;
25948;SDS011;13961;51.178;4.448;2023-06-14T13:16:24;3.67;;;2.53;;
25948;SDS011;13961;51.178;4.448;2023-06-14T13:18:50;2.40;;;2.15;;
25948;SDS011;13961;51.178;4.448;2023-06-14T13:21:15;4.95;;;2.60;;
25948;SDS011;13961;51.178;4.448;2023-06-14T13:23:41;8.38;;;2.70;;
25948;SDS011;13961;51.178;4.448;2023-06-14T13:26:07;2.80;;;2.40;;
25948;SDS011;13961;51.178;4.448;2023-06-14T13:28:32;2.92;;;2.40;;
25948;SDS011;13961;51.178;4.448;2023-06-14T13:31:01;5.72;;;2.40;;
25948;SDS011;13961;51.178;4.448;2023-06-14T13:33:27;2.30;;;2.10;;
25948;SDS011;13961;51.178;4.448;2023-06-14T13:35:52;2.92;;;1.90;;
25948;SDS011;13961;51.178;4.448;2023-06-14T13:38:18;5.70;;;1.90;;
25948;SDS011;13961;51.178;4.448;2023-06-14T13:40:44;3.67;;;2.10;;
25948;SDS011;13961;51.178;4.448;2023-06-14T13:43:09;5.38;;;1.90;;
25948;SDS011;13961;51.178;4.448;2023-06-14T13:45:35;5.90;;;2.20;;
25948;SDS011;13961;51.178;4.448;2023-06-14T13:48:01;2.03;;;1.80;;
25948;SDS011;13961;51.178;4.448;2023-06-14T13:50:27;2.40;;;1.83;;
25948;SDS011;13961;51.178;4.448;2023-06-14T13:52:52;2.83;;;1.73;;
25948;SDS011;13961;51.178;4.448;2023-06-14T13:55:18;1.75;;;1.65;;
25948;SDS011;13961;51.178;4.448;2023-06-14T13:57:44;4.47;;;1.80;;
25948;SDS011;13961;51.178;4.448;2023-06-14T14:00:10;4.43;;;2.20;;
25948;SDS011;13961;51.178;4.448;2023-06-14T14:02:37;4.43;;;2.28;;
25948;SDS011;13961;51.178;4.448;2023-06-14T14:05:03;2.17;;;1.98;;
25948;SDS011;13961;51.178;4.448;2023-06-14T14:07:28;4.38;;;2.20;;
25948;SDS011;13961;51.178;4.448;2023-06-14T14:09:54;3.75;;;1.90;;
25948;SDS011;13961;51.178;4.448;2023-06-14T14:12:22;4.65;;;2.00;;
25948;SDS011;13961;51.178;4.448;2023-06-14T14:14:48;3.05;;;2.05;;
25948;SDS011;13961;51.178;4.448;2023-06-14T14:17:14;2.28;;;2.08;;
25948;SDS011;13961;51.178;4.448;2023-06-14T14:19:39;3.45;;;2.10;;
25948;SDS011;13961;51.178;4.448;2023-06-14T14:22:05;4.28;;;2.13;;
25948;SDS011;13961;51.178;4.448;2023-06-14T14:24:31;6.32;;;2.22;;
25948;SDS011;13961;51.178;4.448;2023-06-14T14:26:56;2.90;;;2.33;;
25948;SDS011;13961;51.178;4.448;2023-06-14T14:29:25;2.58;;;2.03;;
25948;SDS011;13961;51.178;4.448;2023-06-14T14:31:54;3.20;;;2.00;;
25948;SDS011;13961;51.178;4.448;2023-06-14T14:34:20;3.22;;;2.17;;
25948;SDS011;13961;51.178;4.448;2023-06-14T14:36:46;3.00;;;2.22;;
25948;SDS011;13961;51.178;4.448;2023-06-14T14:39:13;2.58;;;2.28;;
25948;SDS011;13961;51.178;4.448;2023-06-14T14:41:38;3.60;;;2.35;;
25948;SDS011;13961;51.178;4.448;2023-06-14T14:44:05;2.92;;;2.45;;
25948;SDS011;13961;51.178;4.448;2023-06-14T14:46:31;3.95;;;2.40;;
25948;SDS011;13961;51.178;4.448;2023-06-14T14:48:58;3.33;;;2.50;;
25948;SDS011;13961;51.178;4.448;2023-06-14T14:51:24;2.35;;;2.08;;
25948;SDS011;13961;51.178;4.448;2023-06-14T14:53:49;3.50;;;2.33;;
25948;SDS011;13961;51.178;4.448;2023-06-14T14:56:16;6.22;;;2.55;;
25948;SDS011;13961;51.178;4.448;2023-06-14T14:58:42;3.78;;;2.20;;
25948;SDS011;13961;51.178;4.448;2023-06-14T15:01:08;5.00;;;2.05;;
25948;SDS011;13961;51.178;4.448;2023-06-14T15:03:35;4.28;;;2.40;;
25948;SDS011;13961;51.178;4.448;2023-06-14T15:06:01;2.78;;;2.50;;
25948;SDS011;13961;51.178;4.448;2023-06-14T15:08:26;2.53;;;2.33;;